Time;durP1;ratioP1;P1;durP2;ratioP2;P2;SDS_P1;SDS_P2;PMS_P1;PMS_P2;Temp;Humidity;BMP_temperature;BMP_pressure;BME280_temperature;BME280_humidity;BME280_pressure;Samples;Min_cycle;Max_cycle;Signal;HPM_P1;HPM_P2
2024/01/17 00:01:57;;;;;;;17.80;6.90;;;5.90;99.90;;;;;;5065742;28;20036;-46
2024/01/17 00:04:23;;;;;;;17.10;7.32;;;5.90;99.90;;;;;;5065663;28;20013;-48
2024/01/17 00:06:49;;;;;;;16.30;6.88;;;5.90;99.90;;;;;;5065662;28;20227;-49
2024/01/17 00:09:15;;;;;;;19.30;7.63;;;5.90;99.90;;;;;;5065290;28;20044;-46
2024/01/17 00:11:42;;;;;;;18.17;7.05;;;5.90;99.90;;;;;;5065327;28;20036;-48
2024/01/17 00:14:08;;;;;;;17.88;7.45;;;5.90;99.90;;;;;;5065393;28;20103;-45
2024/01/17 00:16:34;;;;;;;20.52;9.00;;;5.90;99.90;;;;;;5065483;28;20310;-46
2024/01/17 00:19:00;;;;;;;16.38;7.55;;;5.90;99.90;;;;;;5064920;28;20032;-46
2024/01/17 00:21:25;;;;;;;19.63;8.85;;;5.90;99.90;;;;;;5064256;28;20033;-47
2024/01/17 00:23:51;;;;;;;16.58;7.85;;;5.80;99.90;;;;;;5071211;28;20074;-47
2024/01/17 00:26:17;;;;;;;18.75;7.68;;;5.80;99.90;;;;;;5072039;28;20020;-48
2024/01/17 00:28:42;;;;;;;22.75;8.52;;;5.80;99.90;;;;;;5072161;28;20164;-49
2024/01/17 00:31:08;;;;;;;19.88;8.02;;;5.80;99.90;;;;;;5072409;28;20075;-46
2024/01/17 00:33:34;;;;;;;16.92;7.47;;;5.80;99.90;;;;;;5071777;28;20021;-49
2024/01/17 00:36:00;;;;;;;17.42;7.43;;;5.80;99.90;;;;;;5071572;28;20219;-49
2024/01/17 00:38:25;;;;;;;18.48;8.05;;;5.80;99.90;;;;;;5070917;28;20096;-49
2024/01/17 00:40:51;;;;;;;19.02;7.68;;;5.80;99.90;;;;;;5071007;28;20020;-46
2024/01/17 00:43:17;;;;;;;17.70;8.73;;;5.70;99.90;;;;;;5071028;28;20321;-48
2024/01/17 00:45:43;;;;;;;17.23;8.10;;;5.70;99.90;;;;;;5072119;28;20104;-54
2024/01/17 00:48:09;;;;;;;17.38;7.93;;;5.70;99.90;;;;;;5071810;28;20059;-49
2024/01/17 00:50:34;;;;;;;16.80;7.75;;;5.70;99.90;;;;;;5071905;28;20029;-46
2024/01/17 00:53:00;;;;;;;20.52;9.07;;;5.70;99.90;;;;;;5071977;28;20033;-46
2024/01/17 00:55:26;;;;;;;30.30;9.32;;;5.70;99.90;;;;;;5072088;28;20024;-46
2024/01/17 00:57:51;;;;;;;17.38;8.15;;;5.70;99.90;;;;;;5070715;28;20059;-46
2024/01/17 01:00:17;;;;;;;17.73;8.55;;;5.70;99.90;;;;;;5070769;28;20099;-46
2024/01/17 01:02:43;;;;;;;18.67;7.72;;;5.70;99.90;;;;;;5071927;28;20020;-47
2024/01/17 01:05:12;;;;;;;18.52;9.25;;;5.70;99.90;;;;;;5072290;28;20032;-49
2024/01/17 01:07:37;;;;;;;14.57;8.95;;;5.70;99.90;;;;;;5071588;28;20029;-48
2024/01/17 01:10:03;;;;;;;20.58;9.23;;;5.70;99.90;;;;;;5071699;28;20095;-49
2024/01/17 01:12:29;;;;;;;17.38;9.13;;;5.70;99.90;;;;;;5070888;28;20033;-49
2024/01/17 01:14:55;;;;;;;18.50;9.75;;;5.70;99.90;;;;;;5070574;28;20079;-49
2024/01/17 01:17:20;;;;;;;16.42;8.27;;;5.70;99.90;;;;;;5070570;28;20087;-49
2024/01/17 01:19:46;;;;;;;20.60;9.07;;;5.70;99.90;;;;;;5071511;28;20033;-48
2024/01/17 01:22:12;;;;;;;19.70;8.55;;;5.60;99.90;;;;;;5071657;28;20029;-49
2024/01/17 01:24:37;;;;;;;17.58;8.65;;;5.60;99.90;;;;;;5071163;28;20204;-49
2024/01/17 01:27:03;;;;;;;18.02;9.23;;;5.70;99.90;;;;;;5071627;28;20106;-49
2024/01/17 01:29:29;;;;;;;19.50;9.38;;;5.60;99.90;;;;;;5071727;28;20033;-49
2024/01/17 01:31:54;;;;;;;13.73;8.02;;;5.60;99.90;;;;;;5071726;28;20028;-47
2024/01/17 01:34:20;;;;;;;16.92;9.55;;;5.60;99.90;;;;;;5069300;28;20032;-47
2024/01/17 01:36:46;;;;;;;17.95;8.45;;;5.60;99.90;;;;;;5068498;28;20032;-45
2024/01/17 01:39:11;;;;;;;17.23;9.10;;;5.60;99.90;;;;;;5068264;28;20028;-47
2024/01/17 01:41:37;;;;;;;17.80;8.77;;;5.60;99.90;;;;;;5067216;28;20040;-46
2024/01/17 01:44:03;;;;;;;16.83;9.50;;;5.50;99.90;;;;;;5068146;28;20029;-48
2024/01/17 01:46:30;;;;;;;22.05;9.25;;;5.40;99.90;;;;;;5068304;28;20017;-46
2024/01/17 01:48:56;;;;;;;17.45;8.90;;;5.30;99.90;;;;;;5050473;28;20115;-45
2024/01/17 01:51:21;;;;;;;18.23;9.43;;;5.20;99.90;;;;;;5067266;28;20032;-49
2024/01/17 01:53:48;;;;;;;19.08;10.07;;;5.10;99.90;;;;;;5068045;28;20209;-46
2024/01/17 01:56:16;;;;;;;19.08;8.77;;;5.10;99.90;;;;;;5067972;28;20119;-45
2024/01/17 01:58:43;;;;;;;15.80;7.97;;;5.10;99.90;;;;;;5066892;28;20108;-49
2024/01/17 02:01:08;;;;;;;15.27;8.02;;;5.10;99.90;;;;;;5050545;28;20120;-46
2024/01/17 02:03:34;;;;;;;15.45;7.35;;;5.00;99.90;;;;;;5066997;28;20032;-46
2024/01/17 02:06:00;;;;;;;13.00;6.35;;;5.00;99.90;;;;;;5067708;28;20179;-45
2024/01/17 02:08:27;;;;;;;8.90;4.85;;;5.00;99.90;;;;;;5067839;28;20039;-46
2024/01/17 02:10:52;;;;;;;10.93;4.78;;;5.10;99.90;;;;;;5050291;28;20044;-47
2024/01/17 02:13:18;;;;;;;9.63;5.32;;;5.10;99.90;;;;;;5067358;28;20136;-52
2024/01/17 02:15:44;;;;;;;10.77;4.93;;;5.10;99.90;;;;;;5067303;28;20056;-47
2024/01/17 02:18:09;;;;;;;8.35;3.85;;;5.10;99.90;;;;;;5066567;28;20033;-48
2024/01/17 02:20:35;;;;;;;8.88;4.40;;;5.10;99.90;;;;;;5066439;28;20037;-46
2024/01/17 02:23:02;;;;;;;9.52;4.75;;;5.10;99.90;;;;;;5067628;28;20017;-46
2024/01/17 02:25:28;;;;;;;7.10;3.65;;;5.10;99.90;;;;;;5067359;28;20092;-47
2024/01/17 02:27:54;;;;;;;7.25;3.33;;;5.10;99.90;;;;;;5066161;28;20287;-46
2024/01/17 02:30:19;;;;;;;8.55;3.58;;;5.10;99.90;;;;;;5067294;28;20025;-48
2024/01/17 02:32:45;;;;;;;6.55;3.40;;;5.10;99.90;;;;;;5067375;28;20033;-46
2024/01/17 02:35:11;;;;;;;7.05;2.90;;;5.10;99.90;;;;;;5067359;28;20084;-47
2024/01/17 02:37:36;;;;;;;10.02;3.10;;;5.10;99.90;;;;;;5067011;28;20032;-46
2024/01/17 02:40:02;;;;;;;4.18;2.22;;;5.00;99.90;;;;;;5065940;28;20158;-46
2024/01/17 02:42:28;;;;;;;6.28;2.58;;;5.00;99.90;;;;;;5066769;28;20030;-50
2024/01/17 02:44:53;;;;;;;7.63;2.63;;;5.00;99.90;;;;;;5066457;28;20017;-46
2024/01/17 02:47:19;;;;;;;4.65;2.40;;;4.90;99.90;;;;;;5065873;28;20142;-47
2024/01/17 02:49:45;;;;;;;5.13;2.00;;;4.80;99.90;;;;;;5066820;28;20032;-47
2024/01/17 02:52:10;;;;;;;4.85;2.28;;;4.80;99.90;;;;;;5066961;28;20084;-49
2024/01/17 02:54:36;;;;;;;4.97;2.03;;;4.70;99.90;;;;;;5066921;28;20029;-49
2024/01/17 02:57:01;;;;;;;4.47;1.90;;;4.60;99.90;;;;;;5066415;28;20037;-47
2024/01/17 02:59:27;;;;;;;4.18;1.80;;;4.50;99.90;;;;;;5066634;28;20036;-47
2024/01/17 03:01:53;;;;;;;3.13;1.48;;;4.40;99.90;;;;;;5066749;28;20274;-48
2024/01/17 03:04:19;;;;;;;5.85;1.77;;;4.30;99.90;;;;;;5066738;28;20026;-46
2024/01/17 03:06:46;;;;;;;3.80;1.77;;;4.30;99.90;;;;;;5066729;28;20278;-49
2024/01/17 03:09:12;;;;;;;3.00;1.42;;;4.20;99.90;;;;;;5066669;28;20231;-49
2024/01/17 03:11:37;;;;;;;2.83;1.50;;;4.20;99.90;;;;;;5066551;28;20033;-49
2024/01/17 03:14:03;;;;;;;4.30;1.40;;;4.10;99.90;;;;;;5066061;28;20238;-48
2024/01/17 03:16:29;;;;;;;3.40;1.50;;;4.00;99.90;;;;;;5066357;28;20049;-47
2024/01/17 03:18:54;;;;;;;3.53;1.40;;;4.00;99.90;;;;;;5066382;28;20096;-46
2024/01/17 03:21:20;;;;;;;4.13;1.80;;;4.00;99.90;;;;;;5066274;28;20036;-48
2024/01/17 03:23:46;;;;;;;2.60;1.10;;;4.00;99.90;;;;;;5066280;28;20178;-49
2024/01/17 03:26:12;;;;;;;2.78;1.30;;;4.00;99.90;;;;;;5066206;28;20242;-47
2024/01/17 03:28:37;;;;;;;4.72;1.13;;;3.90;99.90;;;;;;5066301;28;20078;-46
2024/01/17 03:31:03;;;;;;;2.00;1.10;;;3.90;99.90;;;;;;5066290;28;20036;-47
2024/01/17 03:33:29;;;;;;;3.65;1.08;;;3.80;99.90;;;;;;5065971;28;20088;-46
2024/01/17 03:35:54;;;;;;;1.58;0.80;;;3.70;99.90;;;;;;5066005;28;20091;-46
2024/01/17 03:38:21;;;;;;;3.08;0.95;;;3.70;99.90;;;;;;5065115;28;20044;-47
2024/01/17 03:40:47;;;;;;;3.17;0.80;;;3.60;99.90;;;;;;5066061;28;20044;-48
2024/01/17 03:43:12;;;;;;;1.85;0.60;;;3.60;99.90;;;;;;5066125;28;20029;-49
2024/01/17 03:45:38;;;;;;;1.80;0.80;;;3.70;99.90;;;;;;5065736;28;20021;-46
2024/01/17 03:48:06;;;;;;;2.15;0.70;;;3.60;99.90;;;;;;5065951;28;20039;-45
2024/01/17 03:50:32;;;;;;;0.85;0.70;;;3.50;99.90;;;;;;5065983;28;20032;-47
2024/01/17 03:52:59;;;;;;;0.93;0.60;;;3.60;99.90;;;;;;5064829;28;20053;-47
2024/01/17 03:55:24;;;;;;;1.60;0.60;;;3.60;99.90;;;;;;5065831;28;20028;-48
2024/01/17 03:57:50;;;;;;;3.65;1.00;;;3.50;99.90;;;;;;5065196;28;20043;-45
2024/01/17 04:00:16;;;;;;;2.88;0.80;;;3.50;99.90;;;;;;5064590;28;20041;-46
2024/01/17 04:02:41;;;;;;;4.80;0.98;;;3.50;99.90;;;;;;5064925;28;20033;-45
2024/01/17 04:05:07;;;;;;;3.17;1.63;;;3.50;99.90;;;;;;5065939;28;20090;-46
2024/01/17 04:07:33;;;;;;;2.45;1.00;;;3.50;99.90;;;;;;5065763;28;20028;-46
2024/01/17 04:09:58;;;;;;;3.58;1.08;;;3.50;99.90;;;;;;5065403;28;20397;-45
2024/01/17 04:12:24;;;;;;;3.00;1.10;;;3.50;99.90;;;;;;5065385;28;20087;-49
2024/01/17 04:14:50;;;;;;;4.75;1.08;;;3.40;99.90;;;;;;5065253;28;20275;-46
2024/01/17 04:17:15;;;;;;;4.72;1.55;;;3.50;99.90;;;;;;5065259;28;20033;-48
2024/01/17 04:19:41;;;;;;;2.03;0.73;;;3.50;99.90;;;;;;5065299;28;20170;-45
2024/01/17 04:22:07;;;;;;;2.67;1.00;;;3.50;99.90;;;;;;5065405;28;20079;-46
2024/01/17 04:24:33;;;;;;;3.97;0.95;;;3.50;99.90;;;;;;5065376;28;20105;-46
2024/01/17 04:26:58;;;;;;;2.78;0.70;;;3.60;99.90;;;;;;5065380;28;20025;-45
2024/01/17 04:29:24;;;;;;;1.58;0.60;;;3.70;99.90;;;;;;5064988;28;20179;-45
2024/01/17 04:31:49;;;;;;;2.38;0.85;;;3.70;99.90;;;;;;5065289;28;20040;-45
2024/01/17 04:34:15;;;;;;;2.15;0.60;;;3.80;99.90;;;;;;5064803;28;20037;-45
2024/01/17 04:36:41;;;;;;;3.10;0.63;;;3.90;99.90;;;;;;5064208;28;20040;-47
2024/01/17 04:39:08;;;;;;;3.83;0.90;;;3.90;99.90;;;;;;5065199;28;20056;-46
2024/01/17 04:41:34;;;;;;;2.15;0.70;;;3.90;99.90;;;;;;5065222;28;20025;-46
2024/01/17 04:44:00;;;;;;;7.43;0.90;;;3.90;99.90;;;;;;5065275;28;20137;-46
2024/01/17 04:46:26;;;;;;;2.28;0.80;;;3.90;99.90;;;;;;5065428;28;20246;-45
2024/01/17 04:48:51;;;;;;;9.50;1.08;;;3.90;99.90;;;;;;5065311;28;20107;-45
2024/01/17 04:51:21;;;;;;;1.77;0.70;;;3.80;99.90;;;;;;5064921;28;20274;-45
2024/01/17 04:53:48;;;;;;;1.95;0.63;;;3.90;99.90;;;;;;5064155;28;20037;-45
2024/01/17 04:56:14;;;;;;;2.28;0.55;;;3.90;99.90;;;;;;5065135;28;20032;-46
2024/01/17 04:58:40;;;;;;;1.20;0.50;;;3.90;99.90;;;;;;5064167;28;20053;-46
2024/01/17 05:01:06;;;;;;;3.13;0.60;;;3.90;99.90;;;;;;5064191;28;20035;-46
2024/01/17 05:03:32;;;;;;;1.48;0.65;;;3.90;99.90;;;;;;5065094;28;20168;-46
2024/01/17 05:05:59;;;;;;;3.47;0.60;;;4.00;99.90;;;;;;5063989;28;20075;-46
2024/01/17 05:08:24;;;;;;;2.63;0.60;;;4.00;99.90;;;;;;5065098;28;20082;-46
2024/01/17 05:10:50;;;;;;;3.08;0.80;;;4.00;99.90;;;;;;5068291;28;20029;-46
2024/01/17 05:13:16;;;;;;;2.25;0.77;;;4.00;99.90;;;;;;5068516;28;20032;-48
2024/01/17 05:15:42;;;;;;;3.40;1.00;;;4.00;99.90;;;;;;5068720;28;20056;-46
2024/01/17 05:18:08;;;;;;;3.65;1.05;;;4.00;99.90;;;;;;5068761;28;20029;-46
2024/01/17 05:20:34;;;;;;;3.60;0.90;;;4.00;99.90;;;;;;5068722;28;20025;-46
2024/01/17 05:23:00;;;;;;;1.40;0.90;;;4.00;99.90;;;;;;5068236;28;20036;-46
2024/01/17 05:25:26;;;;;;;2.08;0.90;;;4.00;99.90;;;;;;5068803;28;20036;-46
2024/01/17 05:27:52;;;;;;;1.73;0.65;;;3.90;99.90;;;;;;5068470;28;20088;-45
2024/01/17 05:30:21;;;;;;;3.03;0.82;;;3.90;99.90;;;;;;5068570;28;20060;-46
2024/01/17 05:32:47;;;;;;;1.10;0.60;;;3.80;99.90;;;;;;5068794;28;20021;-47
2024/01/17 05:35:16;;;;;;;2.10;0.82;;;3.70;99.90;;;;;;5068570;28;20102;-45
2024/01/17 05:37:42;;;;;;;2.92;0.90;;;3.70;99.90;;;;;;5068324;28;20033;-45
2024/01/17 05:40:09;;;;;;;3.92;0.90;;;3.60;99.90;;;;;;5067097;28;20059;-45
2024/01/17 05:42:35;;;;;;;2.38;0.70;;;3.50;99.90;;;;;;5067442;28;20025;-46
2024/01/17 05:45:02;;;;;;;1.85;0.65;;;3.40;99.90;;;;;;5068278;28;20118;-46
2024/01/17 05:47:28;;;;;;;3.28;0.70;;;3.40;99.90;;;;;;5067307;28;20031;-45
2024/01/17 05:49:53;;;;;;;4.57;0.70;;;3.30;99.90;;;;;;5067991;28;20048;-45
2024/01/17 05:52:19;;;;;;;1.38;0.85;;;3.30;99.90;;;;;;5067774;28;20047;-45
2024/01/17 05:54:45;;;;;;;1.85;0.60;;;3.30;99.90;;;;;;5068183;28;20028;-45
2024/01/17 05:57:10;;;;;;;1.17;0.70;;;3.20;99.90;;;;;;5067020;28;20100;-47
2024/01/17 05:59:36;;;;;;;1.95;0.88;;;3.20;99.90;;;;;;5067898;28;20047;-49
2024/01/17 06:02:02;;;;;;;2.28;0.70;;;3.10;99.90;;;;;;5050258;28;20029;-51
2024/01/17 06:04:28;;;;;;;3.30;0.88;;;3.00;99.90;;;;;;5066883;28;20025;-47
2024/01/17 06:06:53;;;;;;;3.15;0.60;;;3.00;99.90;;;;;;5067962;28;20020;-46
2024/01/17 06:09:19;;;;;;;4.03;0.95;;;2.90;99.90;;;;;;5067659;28;20041;-47
2024/01/17 06:11:45;;;;;;;1.17;0.60;;;2.90;99.90;;;;;;5067346;28;20039;-47
2024/01/17 06:14:10;;;;;;;4.78;0.85;;;2.80;99.90;;;;;;5067860;28;20100;-47
2024/01/17 06:16:36;;;;;;;0.75;0.65;;;2.80;99.90;;;;;;5067620;28;20059;-47
2024/01/17 06:19:02;;;;;;;3.45;0.90;;;2.80;99.90;;;;;;5066650;28;20100;-47
2024/01/17 06:21:27;;;;;;;5.15;0.68;;;2.70;99.90;;;;;;5067001;28;20029;-48
2024/01/17 06:23:53;;;;;;;1.60;0.70;;;2.70;99.90;;;;;;5067109;28;20083;-47
2024/01/17 06:26:19;;;;;;;3.55;2.65;;;2.60;99.90;;;;;;5067378;28;20326;-46
2024/01/17 06:28:45;;;;;;;3.00;1.00;;;2.60;99.90;;;;;;5067467;28;20075;-46
2024/01/17 06:31:10;;;;;;;2.28;1.08;;;2.50;99.90;;;;;;5067474;28;20032;-46
2024/01/17 06:33:36;;;;;;;2.15;1.00;;;2.50;99.90;;;;;;5067330;28;20171;-48
2024/01/17 06:36:02;;;;;;;5.30;1.38;;;2.50;99.90;;;;;;5067412;28;20222;-47
2024/01/17 06:38:28;;;;;;;2.45;0.70;;;2.50;99.90;;;;;;5067161;28;20033;-46
2024/01/17 06:40:53;;;;;;;6.25;1.42;;;2.40;99.90;;;;;;5066108;28;20078;-46
2024/01/17 06:43:20;;;;;;;2.35;0.80;;;2.40;99.90;;;;;;5067092;28;20039;-48
2024/01/17 06:45:46;;;;;;;4.55;1.13;;;2.50;99.90;;;;;;5067134;28;20221;-47
2024/01/17 06:48:12;;;;;;;2.05;0.80;;;2.50;99.90;;;;;;5067024;28;20029;-47
2024/01/17 06:50:37;;;;;;;4.45;1.40;;;2.60;99.90;;;;;;5067056;28;20037;-47
2024/01/17 06:53:03;;;;;;;2.72;1.42;;;2.70;99.90;;;;;;5066828;28;20040;-46
2024/01/17 06:55:29;;;;;;;6.07;1.10;;;2.70;99.90;;;;;;5065928;28;20029;-47
2024/01/17 06:57:54;;;;;;;3.55;0.98;;;2.80;99.90;;;;;;5066877;28;20064;-46
2024/01/17 07:00:20;;;;;;;1.85;0.80;;;2.90;99.90;;;;;;5066512;28;20036;-50
2024/01/17 07:02:47;;;;;;;2.38;0.77;;;2.90;99.90;;;;;;5066813;28;20025;-47
2024/01/17 07:05:13;;;;;;;4.45;0.80;;;2.90;99.90;;;;;;5066552;28;20056;-46
2024/01/17 07:07:39;;;;;;;3.63;0.90;;;2.90;99.90;;;;;;5066633;28;20301;-47
2024/01/17 07:10:06;;;;;;;4.90;1.00;;;2.90;99.90;;;;;;5066619;28;20040;-47
2024/01/17 07:12:31;;;;;;;2.42;1.10;;;2.80;99.90;;;;;;5066607;28;20090;-46
2024/01/17 07:14:57;;;;;;;2.88;0.80;;;2.70;99.90;;;;;;5065935;28;20056;-47
2024/01/17 07:17:23;;;;;;;3.42;0.82;;;2.70;99.90;;;;;;5066256;28;20092;-47
2024/01/17 07:19:49;;;;;;;1.67;0.70;;;2.70;99.90;;;;;;5066217;28;20044;-47
2024/01/17 07:22:14;;;;;;;3.58;1.20;;;2.70;99.90;;;;;;5066310;28;20025;-47
2024/01/17 07:24:40;;;;;;;3.97;0.80;;;2.70;99.90;;;;;;5066817;28;20025;-48
2024/01/17 07:27:06;;;;;;;3.50;0.85;;;2.60;99.90;;;;;;5066431;28;20024;-47
2024/01/17 07:29:32;;;;;;;5.85;1.20;;;2.60;99.90;;;;;;5066281;28;20092;-48
2024/01/17 07:31:57;;;;;;;4.90;0.70;;;2.60;99.90;;;;;;5064402;28;20087;-49
2024/01/17 07:34:23;;;;;;;5.93;2.90;;;2.60;99.90;;;;;;5065286;28;20182;-46
2024/01/17 07:36:51;;;;;;;1.75;0.70;;;2.50;99.90;;;;;;5066116;28;20338;-46
2024/01/17 07:39:18;;;;;;;4.13;1.20;;;2.60;99.90;;;;;;5064706;28;20032;-47
2024/01/17 07:41:44;;;;;;;5.65;0.80;;;2.60;99.90;;;;;;5065760;28;20029;-46
2024/01/17 07:44:10;;;;;;;4.75;0.80;;;2.60;99.90;;;;;;5065932;28;20343;-49
2024/01/17 07:46:36;;;;;;;2.83;0.70;;;2.60;99.90;;;;;;5065999;28;20037;-47
2024/01/17 07:49:02;;;;;;;3.92;1.10;;;2.60;99.90;;;;;;5065989;28;20098;-48
2024/01/17 07:51:27;;;;;;;6.03;2.53;;;2.60;99.90;;;;;;5065770;28;20037;-46
2024/01/17 07:53:53;;;;;;;2.80;0.80;;;2.60;99.90;;;;;;5065933;28;20212;-45
2024/01/17 07:56:19;;;;;;;4.88;0.90;;;2.50;99.90;;;;;;5065728;28;20278;-47
2024/01/17 07:58:44;;;;;;;5.97;1.30;;;2.50;99.90;;;;;;5065733;28;20048;-46
2024/01/17 08:01:11;;;;;;;4.45;1.00;;;2.50;99.90;;;;;;5065398;28;20017;-47
2024/01/17 08:03:36;;;;;;;4.55;1.10;;;2.40;99.90;;;;;;5065250;28;20194;-48
2024/01/17 08:06:02;;;;;;;2.47;1.10;;;2.40;99.90;;;;;;5064193;28;20036;-46
2024/01/17 08:08:28;;;;;;;6.40;1.25;;;2.30;99.90;;;;;;5065513;28;20021;-46
2024/01/17 08:10:54;;;;;;;2.90;1.10;;;2.30;99.90;;;;;;5065561;28;20306;-46
2024/01/17 08:13:20;;;;;;;3.03;0.93;;;2.30;99.90;;;;;;5065321;28;20290;-49
2024/01/17 08:15:46;;;;;;;7.18;1.08;;;2.30;99.90;;;;;;5065221;28;20059;-46
2024/01/17 08:18:13;;;;;;;2.45;0.93;;;2.20;99.90;;;;;;5065076;28;20033;-48
2024/01/17 08:20:39;;;;;;;4.53;0.98;;;2.20;99.90;;;;;;5065285;28;20032;-46
2024/01/17 08:23:05;;;;;;;2.78;1.20;;;2.20;99.90;;;;;;5065312;28;20036;-46
2024/01/17 08:25:31;;;;;;;2.78;1.00;;;2.10;99.90;;;;;;5065094;28;20043;-48
2024/01/17 08:27:59;;;;;;;3.05;0.90;;;2.00;99.90;;;;;;5064970;28;20036;-46
2024/01/17 08:30:25;;;;;;;2.78;1.15;;;2.00;99.90;;;;;;5063860;28;20295;-46
2024/01/17 08:32:53;;;;;;;9.88;3.78;;;2.10;99.90;;;;;;5063756;28;20052;-48
2024/01/17 08:35:19;;;;;;;14.70;5.32;;;2.10;99.90;;;;;;5064262;28;20071;-46
2024/01/17 08:37:45;;;;;;;14.57;5.25;;;2.00;99.90;;;;;;5064938;28;20033;-46
2024/01/17 08:40:11;;;;;;;16.90;5.55;;;2.00;99.90;;;;;;5063948;28;20111;-48
2024/01/17 08:42:37;;;;;;;22.15;7.97;;;2.00;99.90;;;;;;5063993;28;20082;-47
2024/01/17 08:45:05;;;;;;;25.08;10.70;;;2.10;99.90;;;;;;5068655;28;20048;-46
2024/01/17 08:47:31;;;;;;;23.52;10.48;;;2.00;99.90;;;;;;5068706;28;20025;-47
2024/01/17 08:49:59;;;;;;;19.73;6.53;;;2.00;99.90;;;;;;5068262;28;20100;-46
2024/01/17 08:52:24;;;;;;;10.52;4.80;;;2.10;99.90;;;;;;5068641;28;20033;-47
2024/01/17 08:54:50;;;;;;;9.82;3.17;;;2.00;99.90;;;;;;5068943;28;20028;-47
2024/01/17 08:57:16;;;;;;;6.28;1.75;;;2.00;99.90;;;;;;5068326;28;20100;-46
2024/01/17 08:59:41;;;;;;;4.82;1.20;;;2.00;99.90;;;;;;5068672;28;20032;-47
2024/01/17 09:02:07;;;;;;;6.13;1.67;;;2.00;99.90;;;;;;5068622;28;20163;-46
2024/01/17 09:04:33;;;;;;;8.85;2.45;;;2.00;99.90;;;;;;5068545;28;20205;-48
2024/01/17 09:06:58;;;;;;;7.18;1.73;;;2.00;99.90;;;;;;5068716;28;20167;-47
2024/01/17 09:09:27;;;;;;;4.28;1.73;;;2.10;99.90;;;;;;5068429;28;20100;-49
2024/01/17 09:11:56;;;;;;;6.30;2.55;;;2.10;99.90;;;;;;5068867;28;20094;-46
2024/01/17 09:14:24;;;;;;;9.95;3.53;;;2.10;99.90;;;;;;5068436;28;20024;-49
2024/01/17 09:16:53;;;;;;;9.23;3.30;;;2.10;99.90;;;;;;5068446;28;20060;-49
2024/01/17 09:19:20;;;;;;;6.72;3.85;;;2.20;99.90;;;;;;5068241;28;20229;-46
2024/01/17 09:21:47;;;;;;;14.82;6.43;;;2.20;99.90;;;;;;5067591;28;20021;-46
2024/01/17 09:24:13;;;;;;;26.95;9.43;;;2.20;99.90;;;;;;5068526;28;20209;-48
2024/01/17 09:26:38;;;;;;;25.08;8.52;;;2.30;99.90;;;;;;5068450;28;20033;-47
2024/01/17 09:29:04;;;;;;;24.67;7.10;;;2.40;99.90;;;;;;5068435;28;20029;-49
2024/01/17 09:31:30;;;;;;;19.95;6.88;;;2.50;99.90;;;;;;5067952;28;20025;-46
2024/01/17 09:33:56;;;;;;;19.25;5.43;;;2.60;99.90;;;;;;5068137;28;20100;-48
2024/01/17 09:36:21;;;;;;;19.58;7.00;;;3.00;99.90;;;;;;5068095;28;20021;-47
2024/01/17 09:38:47;;;;;;;26.45;8.27;;;4.50;99.90;;;;;;5067501;28;20092;-48
2024/01/17 09:41:13;;;;;;;21.08;6.38;;;6.20;99.90;;;;;;5066860;28;20829;-47
2024/01/17 09:43:39;;;;;;;16.50;4.93;;;7.40;99.90;;;;;;5067645;28;20083;-48
2024/01/17 09:46:11;;;;;;;18.55;4.97;;;7.90;99.90;;;;;;5067690;28;20079;-51
2024/01/17 09:48:38;;;;;;;13.07;3.97;;;8.30;99.90;;;;;;5067018;28;20294;-50
2024/01/17 09:51:03;;;;;;;17.45;7.70;;;8.60;99.90;;;;;;5066922;28;20302;-50
2024/01/17 09:53:30;;;;;;;9.25;2.95;;;9.00;99.90;;;;;;5050100;28;20029;-49
2024/01/17 09:55:58;;;;;;;8.70;2.75;;;9.60;99.90;;;;;;5067015;28;20024;-48
2024/01/17 09:58:24;;;;;;;9.52;2.50;;;9.90;99.90;;;;;;5066734;28;20040;-49
2024/01/17 10:00:49;;;;;;;5.53;1.92;;;10.40;99.90;;;;;;5066624;28;20021;-52
2024/01/17 10:03:20;;;;;;;7.88;2.40;;;9.80;99.90;;;;;;5066899;28;20037;-51
2024/01/17 10:05:50;;;;;;;13.25;3.00;;;8.60;99.90;;;;;;5066951;28;20020;-50
2024/01/17 10:08:16;;;;;;;11.88;3.40;;;7.40;99.90;;;;;;5067647;28;20024;-49
2024/01/17 10:10:42;;;;;;;7.43;2.45;;;6.40;99.90;;;;;;5066669;28;20044;-51
2024/01/17 10:13:07;;;;;;;12.10;2.35;;;5.80;99.90;;;;;;5067675;28;20020;-50
2024/01/17 10:15:33;;;;;;;7.45;2.20;;;5.30;99.90;;;;;;5066070;28;20064;-50
2024/01/17 10:18:00;;;;;;;2.92;1.40;;;5.10;99.90;;;;;;5065975;28;20082;-48
2024/01/17 10:20:26;;;;;;;5.40;1.50;;;4.90;99.90;;;;;;5066249;28;20039;-48
2024/01/17 10:22:51;;;;;;;10.00;2.05;;;4.70;99.90;;;;;;5066930;28;20294;-48
2024/01/17 10:25:17;;;;;;;6.20;1.70;;;4.50;99.90;;;;;;5066892;28;20029;-48
2024/01/17 10:27:43;;;;;;;4.18;1.85;;;4.40;99.90;;;;;;5066423;28;20036;-48
2024/01/17 10:30:10;;;;;;;4.25;1.70;;;4.30;99.90;;;;;;5066102;28;20100;-48
2024/01/17 10:32:37;;;;;;;5.60;1.40;;;4.30;99.90;;;;;;5067140;28;20043;-48
2024/01/17 10:35:07;;;;;;;6.03;2.08;;;4.20;99.90;;;;;;5049432;28;20054;-48
2024/01/17 10:37:32;;;;;;;;;;;4.20;99.90;;;;;;5066271;28;20033;-49
2024/01/17 10:40:09;;;;;;;6.50;1.35;;;4.10;99.90;;;;;;5066606;28;19984;-48
2024/01/17 10:42:34;;;;;;;4.13;1.10;;;4.10;99.90;;;;;;5066207;28;20291;-48
2024/01/17 10:45:00;;;;;;;4.88;1.70;;;4.10;99.90;;;;;;5066824;28;20075;-47
2024/01/17 10:47:26;;;;;;;4.55;1.20;;;4.10;99.90;;;;;;5066325;28;20286;-49
2024/01/17 10:49:51;;;;;;;5.20;3.00;;;4.00;99.90;;;;;;5066546;28;20139;-49
2024/01/17 10:52:17;;;;;;;3.22;1.08;;;4.00;99.90;;;;;;5065551;28;20033;-48
2024/01/17 10:54:46;;;;;;;2.95;1.02;;;4.00;99.90;;;;;;5065360;28;20039;-49
2024/01/17 10:57:11;;;;;;;6.13;1.10;;;3.90;99.90;;;;;;5066412;28;20029;-48
2024/01/17 10:59:45;;;;;;;2.45;1.10;;;3.90;99.90;;;;;;5066063;28;20112;-46
2024/01/17 11:02:22;;;;;;;3.13;1.42;;;3.90;99.90;;;;;;5049445;28;20065;-46
2024/01/17 11:04:55;;;;;;;2.40;0.90;;;3.90;99.90;;;;;;5065225;28;20136;-49
2024/01/17 11:07:22;;;;;;;5.50;1.10;;;4.00;99.90;;;;;;5065301;28;20025;-48
2024/01/17 11:09:47;;;;;;;3.25;1.20;;;4.00;99.90;;;;;;5065509;28;20071;-48
2024/01/17 11:12:14;;;;;;;4.50;1.60;;;4.00;99.90;;;;;;5048509;28;20221;-49
2024/01/17 11:14:39;;;;;;;6.18;1.40;;;3.90;99.90;;;;;;5064626;28;20290;-47
2024/01/17 11:17:05;;;;;;;5.05;1.48;;;4.00;99.90;;;;;;5066155;28;20052;-48
2024/01/17 11:19:32;;;;;;;6.05;1.70;;;4.00;99.90;;;;;;5065320;28;20072;-49
2024/01/17 11:21:58;;;;;;;5.38;1.33;;;3.90;99.90;;;;;;5048503;28;20021;-47
2024/01/17 11:24:41;;;;;;;3.92;1.80;;;4.00;99.90;;;;;;5048650;28;20084;-47
2024/01/17 11:27:34;;;;;;;3.42;1.02;;;4.00;99.90;;;;;;5050034;28;20033;-48
2024/01/17 11:30:11;;;;;;;3.10;1.42;;;4.00;99.90;;;;;;5057250;28;20040;-47
2024/01/17 11:33:06;;;;;;;4.05;1.15;;;4.00;99.90;;;;;;5064796;28;20037;-49
2024/01/17 11:35:48;;;;;;;6.85;1.30;;;4.00;99.90;;;;;;5065892;28;20025;-47
2024/01/17 11:38:23;;;;;;;1.92;1.33;;;4.00;99.90;;;;;;5065835;28;20124;-46
2024/01/17 11:40:56;;;;;;;4.28;1.85;;;4.00;99.90;;;;;;5065589;28;20222;-49
2024/01/17 11:43:22;;;;;;;5.47;1.58;;;4.00;99.90;;;;;;5065579;28;20047;-46
2024/01/17 11:45:50;;;;;;;5.57;1.88;;;4.00;99.90;;;;;;5063993;28;20052;-45
2024/01/17 11:48:26;;;;;;;9.05;1.52;;;4.00;99.90;;;;;;5064821;28;20193;-46
2024/01/17 11:51:01;;;;;;;2.47;1.25;;;4.10;99.90;;;;;;5064387;28;20190;-46
2024/01/17 11:53:28;;;;;;;1.73;0.80;;;4.10;99.90;;;;;;5064946;28;20036;-46
2024/01/17 11:55:55;;;;;;;5.82;0.90;;;4.20;99.90;;;;;;5065615;28;20028;-48
2024/01/17 11:58:22;;;;;;;5.25;1.60;;;4.40;99.90;;;;;;5047554;28;20283;-46
2024/01/17 12:00:51;;;;;;;6.22;2.05;;;5.60;99.90;;;;;;5064132;28;20029;-48
2024/01/17 12:03:30;;;;;;;2.83;1.20;;;8.30;99.90;;;;;;5064148;28;20044;-49
2024/01/17 12:05:56;;;;;;;3.80;1.25;;;10.10;99.90;;;;;;5064197;28;20279;-48
2024/01/17 12:08:21;;;;;;;7.78;2.25;;;11.30;99.90;;;;;;5064306;28;20039;-48
2024/01/17 12:10:53;;;;;;;6.40;1.75;;;12.30;99.90;;;;;;5064269;28;20028;-51
2024/01/17 12:13:18;;;;;;;4.53;1.10;;;13.10;99.90;;;;;;5064752;28;20029;-49
2024/01/17 12:15:46;;;;;;;5.47;2.15;;;13.80;99.90;;;;;;5064625;28;20051;-48
2024/01/17 12:18:11;;;;;;;2.60;1.10;;;14.20;99.90;;;;;;5047333;28;20075;-50
2024/01/17 12:20:38;;;;;;;6.38;1.23;;;14.70;99.90;;;;;;5065105;28;20179;-50
2024/01/17 12:23:07;;;;;;;3.85;0.88;;;14.80;99.90;;;;;;5064969;28;20021;-50
2024/01/17 12:25:33;;;;;;;4.10;1.23;;;14.90;99.90;;;;;;5064806;28;20020;-52
2024/01/17 12:28:02;;;;;;;1.35;0.80;;;14.90;99.90;;;;;;5064083;28;20029;-49
2024/01/17 12:30:28;;;;;;;3.78;1.13;;;14.90;99.90;;;;;;5064877;28;20037;-50
2024/01/17 12:32:53;;;;;;;3.75;0.90;;;15.00;99.90;;;;;;5064934;28;20048;-49
2024/01/17 12:35:19;;;;;;;3.42;1.33;;;15.20;99.90;;;;;;5063938;28;20052;-49
2024/01/17 12:37:45;;;;;;;4.53;2.13;;;15.30;99.90;;;;;;5064932;28;20060;-48
2024/01/17 12:40:11;;;;;;;7.88;2.88;;;15.20;99.90;;;;;;5064111;28;20036;-49
2024/01/17 12:42:37;;;;;;;10.52;4.80;;;15.60;99.90;;;;;;5064739;28;20094;-49
2024/01/17 12:45:02;;;;;;;4.57;1.80;;;15.90;99.90;;;;;;5063760;28;20025;-49
2024/01/17 12:47:28;;;;;;;2.90;1.00;;;16.10;99.90;;;;;;5063849;28;20302;-48
2024/01/17 12:49:54;;;;;;;4.47;1.05;;;15.80;99.90;;;;;;5063287;28;20037;-51